sensor_id;sensor_type;location;lat;lon;timestamp;P1;durP1;ratioP1;P2;durP2;ratioP2
76856;SDS011;69705;44.686;37.628;2023-07-20T00:01:52;9.83;;;5.40;;
76856;SDS011;69705;44.686;37.628;2023-07-20T00:04:19;8.88;;;4.93;;
76856;SDS011;69705;44.686;37.628;2023-07-20T00:06:46;10.07;;;5.15;;
76856;SDS011;69705;44.686;37.628;2023-07-20T00:09:12;10.20;;;4.95;;
76856;SDS011;69705;44.686;37.628;2023-07-20T00:11:39;9.93;;;5.10;;
76856;SDS011;69705;44.686;37.628;2023-07-20T00:14:06;8.97;;;4.80;;
76856;SDS011;69705;44.686;37.628;2023-07-20T00:16:35;9.95;;;5.03;;
76856;SDS011;69705;44.686;37.628;2023-07-20T00:19:02;9.13;;;4.90;;
76856;SDS011;69705;44.686;37.628;2023-07-20T00:21:31;9.50;;;4.70;;
76856;SDS011;69705;44.686;37.628;2023-07-20T00:23:58;8.13;;;4.80;;
76856;SDS011;69705;44.686;37.628;2023-07-20T00:26:24;9.27;;;4.80;;
76856;SDS011;69705;44.686;37.628;2023-07-20T00:28:51;10.25;;;4.75;;
76856;SDS011;69705;44.686;37.628;2023-07-20T00:31:19;8.65;;;5.00;;
76856;SDS011;69705;44.686;37.628;2023-07-20T00:33:46;8.88;;;4.78;;
76856;SDS011;69705;44.686;37.628;2023-07-20T00:36:13;9.60;;;4.90;;
76856;SDS011;69705;44.686;37.628;2023-07-20T00:38:42;9.73;;;4.40;;
76856;SDS011;69705;44.686;37.628;2023-07-20T00:41:09;10.35;;;5.00;;
76856;SDS011;69705;44.686;37.628;2023-07-20T00:43:36;8.70;;;5.05;;
76856;SDS011;69705;44.686;37.628;2023-07-20T00:46:02;9.43;;;4.90;;
76856;SDS011;69705;44.686;37.628;2023-07-20T00:48:30;9.15;;;4.82;;
76856;SDS011;69705;44.686;37.628;2023-07-20T00:50:58;9.13;;;4.60;;
76856;SDS011;69705;44.686;37.628;2023-07-20T00:53:26;11.77;;;4.90;;
76856;SDS011;69705;44.686;37.628;2023-07-20T00:55:53;9.05;;;4.38;;
76856;SDS011;69705;44.686;37.628;2023-07-20T00:58:20;9.20;;;4.45;;
76856;SDS011;69705;44.686;37.628;2023-07-20T01:00:48;9.30;;;4.47;;
76856;SDS011;69705;44.686;37.628;2023-07-20T01:03:14;10.00;;;4.90;;
76856;SDS011;69705;44.686;37.628;2023-07-20T01:05:43;9.77;;;4.50;;
76856;SDS011;69705;44.686;37.628;2023-07-20T01:11:43;9.02;;;4.60;;
76856;SDS011;69705;44.686;37.628;2023-07-20T01:14:25;7.88;;;4.18;;
76856;SDS011;69705;44.686;37.628;2023-07-20T01:16:52;8.37;;;4.30;;
76856;SDS011;69705;44.686;37.628;2023-07-20T01:19:19;7.13;;;4.13;;
76856;SDS011;69705;44.686;37.628;2023-07-20T01:24:27;7.20;;;4.00;;
76856;SDS011;69705;44.686;37.628;2023-07-20T01:32:13;8.73;;;4.20;;
76856;SDS011;69705;44.686;37.628;2023-07-20T01:34:43;9.13;;;4.30;;
76856;SDS011;69705;44.686;37.628;2023-07-20T01:37:11;8.70;;;4.50;;
76856;SDS011;69705;44.686;37.628;2023-07-20T01:39:39;9.38;;;4.40;;
76856;SDS011;69705;44.686;37.628;2023-07-20T01:42:06;8.57;;;4.47;;
76856;SDS011;69705;44.686;37.628;2023-07-20T01:44:33;9.25;;;4.60;;
76856;SDS011;69705;44.686;37.628;2023-07-20T01:47:00;10.73;;;4.78;;
76856;SDS011;69705;44.686;37.628;2023-07-20T01:49:27;8.70;;;4.38;;
76856;SDS011;69705;44.686;37.628;2023-07-20T01:51:54;10.48;;;4.85;;
76856;SDS011;69705;44.686;37.628;2023-07-20T01:54:21;8.90;;;4.60;;
76856;SDS011;69705;44.686;37.628;2023-07-20T01:56:47;10.15;;;4.45;;
76856;SDS011;69705;44.686;37.628;2023-07-20T01:59:14;8.73;;;4.60;;
76856;SDS011;69705;44.686;37.628;2023-07-20T02:01:41;8.98;;;4.53;;
76856;SDS011;69705;44.686;37.628;2023-07-20T02:04:08;9.32;;;4.85;;
76856;SDS011;69705;44.686;37.628;2023-07-20T02:06:35;9.40;;;4.70;;
76856;SDS011;69705;44.686;37.628;2023-07-20T02:09:02;8.27;;;4.32;;
76856;SDS011;69705;44.686;37.628;2023-07-20T02:11:31;10.70;;;4.82;;
76856;SDS011;69705;44.686;37.628;2023-07-20T02:13:58;9.15;;;4.90;;
76856;SDS011;69705;44.686;37.628;2023-07-20T02:16:25;9.82;;;4.47;;
76856;SDS011;69705;44.686;37.628;2023-07-20T02:18:52;8.90;;;4.73;;
76856;SDS011;69705;44.686;37.628;2023-07-20T02:21:19;8.57;;;4.30;;
76856;SDS011;69705;44.686;37.628;2023-07-20T02:23:46;8.60;;;4.50;;
76856;SDS011;69705;44.686;37.628;2023-07-20T02:26:13;9.40;;;5.30;;
76856;SDS011;69705;44.686;37.628;2023-07-20T02:28:41;10.82;;;4.63;;
76856;SDS011;69705;44.686;37.628;2023-07-20T02:31:08;10.30;;;4.33;;
76856;SDS011;69705;44.686;37.628;2023-07-20T02:33:35;8.48;;;4.50;;
76856;SDS011;69705;44.686;37.628;2023-07-20T02:36:01;8.90;;;4.18;;
76856;SDS011;69705;44.686;37.628;2023-07-20T02:38:28;9.18;;;4.70;;
76856;SDS011;69705;44.686;37.628;2023-07-20T02:40:56;9.93;;;4.50;;
76856;SDS011;69705;44.686;37.628;2023-07-20T02:43:22;8.23;;;4.40;;
76856;SDS011;69705;44.686;37.628;2023-07-20T02:45:50;7.85;;;4.30;;
76856;SDS011;69705;44.686;37.628;2023-07-20T02:48:17;10.18;;;4.53;;
76856;SDS011;69705;44.686;37.628;2023-07-20T02:50:45;9.43;;;4.35;;
76856;SDS011;69705;44.686;37.628;2023-07-20T02:53:11;9.88;;;4.35;;
76856;SDS011;69705;44.686;37.628;2023-07-20T02:55:38;10.00;;;4.40;;
76856;SDS011;69705;44.686;37.628;2023-07-20T02:58:05;8.45;;;4.35;;
76856;SDS011;69705;44.686;37.628;2023-07-20T03:00:32;8.98;;;4.00;;
76856;SDS011;69705;44.686;37.628;2023-07-20T03:02:59;15.40;;;6.53;;
76856;SDS011;69705;44.686;37.628;2023-07-20T03:05:26;25.33;;;10.77;;
76856;SDS011;69705;44.686;37.628;2023-07-20T03:07:54;32.97;;;14.20;;
76856;SDS011;69705;44.686;37.628;2023-07-20T03:10:22;38.47;;;16.13;;
76856;SDS011;69705;44.686;37.628;2023-07-20T03:12:49;18.27;;;9.20;;
76856;SDS011;69705;44.686;37.628;2023-07-20T03:15:16;17.98;;;8.70;;
76856;SDS011;69705;44.686;37.628;2023-07-20T03:17:43;13.68;;;6.38;;
76856;SDS011;69705;44.686;37.628;2023-07-20T03:20:10;12.83;;;6.20;;
76856;SDS011;69705;44.686;37.628;2023-07-20T03:22:40;14.77;;;6.95;;
76856;SDS011;69705;44.686;37.628;2023-07-20T03:25:07;21.50;;;11.10;;
76856;SDS011;69705;44.686;37.628;2023-07-20T03:27:35;13.68;;;7.60;;
76856;SDS011;69705;44.686;37.628;2023-07-20T03:30:02;19.88;;;9.07;;
76856;SDS011;69705;44.686;37.628;2023-07-20T03:32:30;24.80;;;10.80;;
76856;SDS011;69705;44.686;37.628;2023-07-20T03:34:57;20.98;;;10.38;;
76856;SDS011;69705;44.686;37.628;2023-07-20T03:37:24;19.92;;;9.50;;
76856;SDS011;69705;44.686;37.628;2023-07-20T03:39:52;21.60;;;9.43;;
76856;SDS011;69705;44.686;37.628;2023-07-20T03:42:18;19.23;;;8.48;;
76856;SDS011;69705;44.686;37.628;2023-07-20T03:44:45;17.47;;;7.93;;
76856;SDS011;69705;44.686;37.628;2023-07-20T03:47:12;16.08;;;7.97;;
76856;SDS011;69705;44.686;37.628;2023-07-20T03:49:39;19.40;;;9.68;;
76856;SDS011;69705;44.686;37.628;2023-07-20T03:52:06;11.68;;;5.82;;
76856;SDS011;69705;44.686;37.628;2023-07-20T03:54:33;10.70;;;4.97;;
76856;SDS011;69705;44.686;37.628;2023-07-20T03:56:59;10.73;;;4.87;;
76856;SDS011;69705;44.686;37.628;2023-07-20T03:59:27;11.48;;;4.55;;
76856;SDS011;69705;44.686;37.628;2023-07-20T04:01:54;10.00;;;5.20;;
76856;SDS011;69705;44.686;37.628;2023-07-20T04:04:21;11.15;;;4.75;;
76856;SDS011;69705;44.686;37.628;2023-07-20T04:06:48;13.27;;;4.57;;
76856;SDS011;69705;44.686;37.628;2023-07-20T04:09:15;10.20;;;4.70;;
76856;SDS011;69705;44.686;37.628;2023-07-20T04:11:41;11.45;;;4.90;;
76856;SDS011;69705;44.686;37.628;2023-07-20T04:14:08;11.15;;;5.10;;
76856;SDS011;69705;44.686;37.628;2023-07-20T04:16:35;11.88;;;4.60;;
76856;SDS011;69705;44.686;37.628;2023-07-20T04:19:03;16.08;;;4.88;;
76856;SDS011;69705;44.686;37.628;2023-07-20T04:21:30;12.47;;;4.93;;
76856;SDS011;69705;44.686;37.628;2023-07-20T04:23:57;10.10;;;4.47;;
76856;SDS011;69705;44.686;37.628;2023-07-20T04:26:24;11.18;;;4.60;;
76856;SDS011;69705;44.686;37.628;2023-07-20T04:28:51;8.70;;;4.13;;
76856;SDS011;69705;44.686;37.628;2023-07-20T04:31:39;9.65;;;4.35;;
76856;SDS011;69705;44.686;37.628;2023-07-20T04:34:06;9.87;;;4.53;;
76856;SDS011;69705;44.686;37.628;2023-07-20T04:36:35;10.32;;;4.95;;
76856;SDS011;69705;44.686;37.628;2023-07-20T04:39:02;8.90;;;4.93;;
76856;SDS011;69705;44.686;37.628;2023-07-20T04:41:36;9.90;;;4.72;;
76856;SDS011;69705;44.686;37.628;2023-07-20T04:44:04;13.18;;;4.68;;
76856;SDS011;69705;44.686;37.628;2023-07-20T04:46:31;10.77;;;4.57;;
76856;SDS011;69705;44.686;37.628;2023-07-20T04:49:01;13.05;;;4.50;;
76856;SDS011;69705;44.686;37.628;2023-07-20T04:51:29;11.13;;;4.38;;
76856;SDS011;69705;44.686;37.628;2023-07-20T04:53:57;11.27;;;4.47;;
76856;SDS011;69705;44.686;37.628;2023-07-20T04:56:25;10.27;;;4.30;;
76856;SDS011;69705;44.686;37.628;2023-07-20T04:58:53;11.23;;;4.40;;
76856;SDS011;69705;44.686;37.628;2023-07-20T05:01:20;10.32;;;4.35;;
76856;SDS011;69705;44.686;37.628;2023-07-20T05:03:47;9.32;;;4.53;;
76856;SDS011;69705;44.686;37.628;2023-07-20T05:06:14;7.90;;;4.38;;
76856;SDS011;69705;44.686;37.628;2023-07-20T05:08:41;8.77;;;4.90;;
76856;SDS011;69705;44.686;37.628;2023-07-20T05:11:08;8.67;;;4.87;;
76856;SDS011;69705;44.686;37.628;2023-07-20T05:13:35;9.10;;;4.70;;
76856;SDS011;69705;44.686;37.628;2023-07-20T05:16:02;10.63;;;4.75;;
76856;SDS011;69705;44.686;37.628;2023-07-20T05:18:30;9.75;;;4.75;;
76856;SDS011;69705;44.686;37.628;2023-07-20T05:20:57;10.40;;;4.85;;
76856;SDS011;69705;44.686;37.628;2023-07-20T05:23:25;9.47;;;4.73;;
76856;SDS011;69705;44.686;37.628;2023-07-20T05:25:56;10.05;;;5.28;;
76856;SDS011;69705;44.686;37.628;2023-07-20T05:28:23;10.48;;;5.40;;
76856;SDS011;69705;44.686;37.628;2023-07-20T05:30:51;9.07;;;5.10;;
76856;SDS011;69705;44.686;37.628;2023-07-20T05:33:18;10.02;;;5.15;;
76856;SDS011;69705;44.686;37.628;2023-07-20T05:35:46;13.50;;;5.00;;
76856;SDS011;69705;44.686;37.628;2023-07-20T05:38:13;11.75;;;5.00;;
76856;SDS011;69705;44.686;37.628;2023-07-20T05:40:40;9.57;;;5.05;;
76856;SDS011;69705;44.686;37.628;2023-07-20T05:43:09;10.02;;;5.20;;
76856;SDS011;69705;44.686;37.628;2023-07-20T05:45:36;8.98;;;5.15;;
76856;SDS011;69705;44.686;37.628;2023-07-20T05:48:03;8.73;;;5.17;;
76856;SDS011;69705;44.686;37.628;2023-07-20T05:50:30;9.82;;;5.15;;
76856;SDS011;69705;44.686;37.628;2023-07-20T05:52:57;11.90;;;5.57;;
76856;SDS011;69705;44.686;37.628;2023-07-20T05:55:24;8.90;;;5.30;;
76856;SDS011;69705;44.686;37.628;2023-07-20T05:57:51;8.75;;;4.93;;
76856;SDS011;69705;44.686;37.628;2023-07-20T06:00:18;9.70;;;5.60;;
76856;SDS011;69705;44.686;37.628;2023-07-20T06:02:45;10.38;;;5.82;;
76856;SDS011;69705;44.686;37.628;2023-07-20T06:05:14;10.57;;;5.43;;
76856;SDS011;69705;44.686;37.628;2023-07-20T06:07:41;9.43;;;5.30;;
76856;SDS011;69705;44.686;37.628;2023-07-20T06:10:08;9.50;;;5.45;;
76856;SDS011;69705;44.686;37.628;2023-07-20T06:12:35;11.43;;;5.43;;
76856;SDS011;69705;44.686;37.628;2023-07-20T06:15:02;11.57;;;5.35;;
76856;SDS011;69705;44.686;37.628;2023-07-20T06:17:30;12.35;;;5.53;;
76856;SDS011;69705;44.686;37.628;2023-07-20T06:19:57;12.68;;;5.05;;
76856;SDS011;69705;44.686;37.628;2023-07-20T06:22:24;8.93;;;5.05;;
76856;SDS011;69705;44.686;37.628;2023-07-20T06:24:51;11.13;;;5.43;;
76856;SDS011;69705;44.686;37.628;2023-07-20T06:27:18;10.02;;;5.00;;
76856;SDS011;69705;44.686;37.628;2023-07-20T06:29:44;8.48;;;5.10;;
76856;SDS011;69705;44.686;37.628;2023-07-20T06:32:11;10.25;;;5.07;;
76856;SDS011;69705;44.686;37.628;2023-07-20T06:34:40;10.73;;;5.40;;
76856;SDS011;69705;44.686;37.628;2023-07-20T06:37:06;10.20;;;5.70;;
76856;SDS011;69705;44.686;37.628;2023-07-20T06:39:33;8.98;;;5.07;;
76856;SDS011;69705;44.686;37.628;2023-07-20T06:42:00;10.40;;;5.60;;
76856;SDS011;69705;44.686;37.628;2023-07-20T06:44:27;10.00;;;5.63;;
76856;SDS011;69705;44.686;37.628;2023-07-20T06:46:54;14.23;;;5.68;;
76856;SDS011;69705;44.686;37.628;2023-07-20T06:49:25;9.97;;;5.27;;
76856;SDS011;69705;44.686;37.628;2023-07-20T06:51:54;8.35;;;5.07;;
76856;SDS011;69705;44.686;37.628;2023-07-20T06:54:21;8.50;;;5.25;;
76856;SDS011;69705;44.686;37.628;2023-07-20T06:56:48;10.43;;;5.00;;
76856;SDS011;69705;44.686;37.628;2023-07-20T06:59:15;10.32;;;5.30;;
76856;SDS011;69705;44.686;37.628;2023-07-20T07:01:42;10.00;;;4.83;;
76856;SDS011;69705;44.686;37.628;2023-07-20T07:04:09;8.32;;;5.07;;
76856;SDS011;69705;44.686;37.628;2023-07-20T07:06:36;8.68;;;4.95;;
76856;SDS011;69705;44.686;37.628;2023-07-20T07:09:03;8.20;;;5.00;;
76856;SDS011;69705;44.686;37.628;2023-07-20T07:11:30;8.60;;;4.85;;
76856;SDS011;69705;44.686;37.628;2023-07-20T07:13:57;10.87;;;4.83;;
76856;SDS011;69705;44.686;37.628;2023-07-20T07:16:26;9.57;;;4.93;;
76856;SDS011;69705;44.686;37.628;2023-07-20T07:18:53;8.43;;;4.80;;
76856;SDS011;69705;44.686;37.628;2023-07-20T07:21:20;9.77;;;4.88;;
76856;SDS011;69705;44.686;37.628;2023-07-20T07:23:47;8.18;;;4.80;;
76856;SDS011;69705;44.686;37.628;2023-07-20T07:26:14;8.13;;;4.77;;
76856;SDS011;69705;44.686;37.628;2023-07-20T07:28:40;8.75;;;4.50;;
76856;SDS011;69705;44.686;37.628;2023-07-20T07:31:07;10.80;;;4.70;;
76856;SDS011;69705;44.686;37.628;2023-07-20T07:33:35;10.52;;;4.90;;
76856;SDS011;69705;44.686;37.628;2023-07-20T07:36:02;7.75;;;4.57;;
76856;SDS011;69705;44.686;37.628;2023-07-20T07:38:29;10.27;;;5.30;;
76856;SDS011;69705;44.686;37.628;2023-07-20T07:40:57;9.48;;;4.70;;
76856;SDS011;69705;44.686;37.628;2023-07-20T07:43:24;9.75;;;4.93;;
76856;SDS011;69705;44.686;37.628;2023-07-20T07:45:53;10.23;;;5.28;;
76856;SDS011;69705;44.686;37.628;2023-07-20T07:48:21;9.27;;;4.90;;
76856;SDS011;69705;44.686;37.628;2023-07-20T07:50:48;8.70;;;4.60;;
76856;SDS011;69705;44.686;37.628;2023-07-20T07:53:16;9.00;;;4.90;;
76856;SDS011;69705;44.686;37.628;2023-07-20T07:55:43;7.97;;;4.80;;
76856;SDS011;69705;44.686;37.628;2023-07-20T07:58:10;9.55;;;4.80;;
76856;SDS011;69705;44.686;37.628;2023-07-20T08:00:37;9.73;;;4.38;;
76856;SDS011;69705;44.686;37.628;2023-07-20T08:03:03;9.00;;;4.60;;
76856;SDS011;69705;44.686;37.628;2023-07-20T08:05:30;9.85;;;4.38;;
76856;SDS011;69705;44.686;37.628;2023-07-20T08:07:57;7.80;;;4.20;;
76856;SDS011;69705;44.686;37.628;2023-07-20T08:10:24;6.78;;;3.90;;
76856;SDS011;69705;44.686;37.628;2023-07-20T08:12:51;9.27;;;4.10;;
76856;SDS011;69705;44.686;37.628;2023-07-20T08:15:18;13.70;;;4.40;;
76856;SDS011;69705;44.686;37.628;2023-07-20T08:17:45;9.00;;;4.30;;
76856;SDS011;69705;44.686;37.628;2023-07-20T08:20:12;8.07;;;4.30;;
76856;SDS011;69705;44.686;37.628;2023-07-20T08:22:39;8.57;;;4.43;;
76856;SDS011;69705;44.686;37.628;2023-07-20T08:25:07;8.10;;;4.60;;
76856;SDS011;69705;44.686;37.628;2023-07-20T08:27:35;8.53;;;4.37;;
76856;SDS011;69705;44.686;37.628;2023-07-20T08:30:03;7.88;;;4.43;;
76856;SDS011;69705;44.686;37.628;2023-07-20T08:32:32;8.10;;;4.50;;
76856;SDS011;69705;44.686;37.628;2023-07-20T08:34:59;8.15;;;4.40;;
76856;SDS011;69705;44.686;37.628;2023-07-20T08:37:26;8.57;;;4.68;;
76856;SDS011;69705;44.686;37.628;2023-07-20T08:39:54;9.10;;;4.43;;
76856;SDS011;69705;44.686;37.628;2023-07-20T08:42:21;7.63;;;4.55;;
76856;SDS011;69705;44.686;37.628;2023-07-20T08:44:49;8.52;;;4.35;;
76856;SDS011;69705;44.686;37.628;2023-07-20T08:47:18;8.32;;;4.60;;
76856;SDS011;69705;44.686;37.628;2023-07-20T08:49:50;9.82;;;4.35;;
76856;SDS011;69705;44.686;37.628;2023-07-20T08:52:17;8.77;;;4.27;;
76856;SDS011;69705;44.686;37.628;2023-07-20T08:54:44;7.55;;;4.00;;
76856;SDS011;69705;44.686;37.628;2023-07-20T08:57:11;9.38;;;3.97;;
76856;SDS011;69705;44.686;37.628;2023-07-20T08:59:40;7.45;;;4.22;;
76856;SDS011;69705;44.686;37.628;2023-07-20T09:02:08;9.93;;;4.00;;
76856;SDS011;69705;44.686;37.628;2023-07-20T09:04:38;6.73;;;3.93;;
76856;SDS011;69705;44.686;37.628;2023-07-20T09:07:05;8.05;;;4.40;;
76856;SDS011;69705;44.686;37.628;2023-07-20T09:09:32;7.55;;;4.22;;
76856;SDS011;69705;44.686;37.628;2023-07-20T09:11:59;8.95;;;4.18;;
76856;SDS011;69705;44.686;37.628;2023-07-20T09:14:25;10.30;;;4.30;;
76856;SDS011;69705;44.686;37.628;2023-07-20T09:16:53;7.30;;;3.93;;
76856;SDS011;69705;44.686;37.628;2023-07-20T09:19:21;6.93;;;4.20;;
76856;SDS011;69705;44.686;37.628;2023-07-20T09:21:48;9.70;;;4.47;;
76856;SDS011;69705;44.686;37.628;2023-07-20T09:24:19;8.15;;;4.00;;
76856;SDS011;69705;44.686;37.628;2023-07-20T09:26:49;7.72;;;4.22;;
76856;SDS011;69705;44.686;37.628;2023-07-20T09:29:18;6.80;;;4.00;;
76856;SDS011;69705;44.686;37.628;2023-07-20T09:31:58;8.77;;;4.50;;
76856;SDS011;69705;44.686;37.628;2023-07-20T09:34:29;8.93;;;4.53;;
76856;SDS011;69705;44.686;37.628;2023-07-20T09:36:59;7.45;;;4.18;;
76856;SDS011;69705;44.686;37.628;2023-07-20T09:39:26;7.47;;;3.72;;
76856;SDS011;69705;44.686;37.628;2023-07-20T09:41:54;7.50;;;3.90;;
76856;SDS011;69705;44.686;37.628;2023-07-20T09:44:21;9.13;;;4.28;;
76856;SDS011;69705;44.686;37.628;2023-07-20T09:46:48;10.10;;;4.60;;
76856;SDS011;69705;44.686;37.628;2023-07-20T09:49:17;9.07;;;5.07;;
76856;SDS011;69705;44.686;37.628;2023-07-20T09:51:44;8.30;;;4.30;;
76856;SDS011;69705;44.686;37.628;2023-07-20T09:54:12;8.10;;;4.70;;
76856;SDS011;69705;44.686;37.628;2023-07-20T09:56:40;7.60;;;4.50;;
76856;SDS011;69705;44.686;37.628;2023-07-20T09:59:08;7.88;;;4.13;;
76856;SDS011;69705;44.686;37.628;2023-07-20T10:01:38;9.00;;;4.78;;
76856;SDS011;69705;44.686;37.628;2023-07-20T10:04:08;9.45;;;4.45;;
76856;SDS011;69705;44.686;37.628;2023-07-20T10:06:39;8.93;;;4.07;;
76856;SDS011;69705;44.686;37.628;2023-07-20T10:09:10;14.60;;;4.20;;
76856;SDS011;69705;44.686;37.628;2023-07-20T10:11:39;9.25;;;4.20;;
76856;SDS011;69705;44.686;37.628;2023-07-20T10:14:09;8.45;;;4.30;;
76856;SDS011;69705;44.686;37.628;2023-07-20T10:16:51;7.88;;;4.20;;
76856;SDS011;69705;44.686;37.628;2023-07-20T10:19:43;7.27;;;3.87;;
76856;SDS011;69705;44.686;37.628;2023-07-20T10:22:22;9.82;;;3.95;;
76856;SDS011;69705;44.686;37.628;2023-07-20T10:24:56;7.03;;;3.70;;
76856;SDS011;69705;44.686;37.628;2023-07-20T10:27:25;7.43;;;3.90;;
76856;SDS011;69705;44.686;37.628;2023-07-20T10:29:52;8.15;;;4.20;;
76856;SDS011;69705;44.686;37.628;2023-07-20T10:32:21;8.77;;;4.30;;
76856;SDS011;69705;44.686;37.628;2023-07-20T10:34:52;6.88;;;3.80;;
76856;SDS011;69705;44.686;37.628;2023-07-20T10:43:02;9.05;;;3.75;;
76856;SDS011;69705;44.686;37.628;2023-07-20T10:48:30;7.85;;;3.45;;
76856;SDS011;69705;44.686;37.628;2023-07-20T10:53:50;6.35;;;2.80;;
76856;SDS011;69705;44.686;37.628;2023-07-20T10:56:20;6.45;;;3.17;;
76856;SDS011;69705;44.686;37.628;2023-07-20T10:58:49;7.47;;;3.23;;
76856;SDS011;69705;44.686;37.628;2023-07-20T11:01:16;7.47;;;3.10;;
76856;SDS011;69705;44.686;37.628;2023-07-20T11:03:43;6.80;;;3.10;;
76856;SDS011;69705;44.686;37.628;2023-07-20T11:08:55;6.68;;;3.35;;
76856;SDS011;69705;44.686;37.628;2023-07-20T11:11:29;8.77;;;3.20;;
76856;SDS011;69705;44.686;37.628;2023-07-20T11:14:25;8.13;;;3.10;;
76856;SDS011;69705;44.686;37.628;2023-07-20T11:16:52;8.65;;;3.10;;
76856;SDS011;69705;44.686;37.628;2023-07-20T11:19:21;6.22;;;2.80;;
76856;SDS011;69705;44.686;37.628;2023-07-20T11:21:53;6.32;;;2.85;;
76856;SDS011;69705;44.686;37.628;2023-07-20T11:24:21;8.30;;;3.00;;
76856;SDS011;69705;44.686;37.628;2023-07-20T11:29:22;7.22;;;2.53;;
76856;SDS011;69705;44.686;37.628;2023-07-20T11:31:52;6.32;;;2.55;;
76856;SDS011;69705;44.686;37.628;2023-07-20T11:34:20;6.47;;;2.67;;
76856;SDS011;69705;44.686;37.628;2023-07-20T11:36:48;6.03;;;2.53;;
76856;SDS011;69705;44.686;37.628;2023-07-20T11:39:17;8.13;;;2.92;;
76856;SDS011;69705;44.686;37.628;2023-07-20T11:41:46;6.63;;;2.60;;
76856;SDS011;69705;44.686;37.628;2023-07-20T11:44:17;8.38;;;2.47;;
76856;SDS011;69705;44.686;37.628;2023-07-20T11:46:48;6.13;;;2.33;;
76856;SDS011;69705;44.686;37.628;2023-07-20T11:49:14;6.50;;;2.20;;
76856;SDS011;69705;44.686;37.628;2023-07-20T11:51:41;9.35;;;2.85;;
76856;SDS011;69705;44.686;37.628;2023-07-20T11:54:08;6.25;;;2.42;;
76856;SDS011;69705;44.686;37.628;2023-07-20T11:56:36;6.03;;;2.28;;
76856;SDS011;69705;44.686;37.628;2023-07-20T11:59:07;6.55;;;2.35;;
76856;SDS011;69705;44.686;37.628;2023-07-20T12:01:34;6.03;;;2.23;;
76856;SDS011;69705;44.686;37.628;2023-07-20T12:04:03;6.57;;;2.20;;
76856;SDS011;69705;44.686;37.628;2023-07-20T12:06:30;7.82;;;2.40;;
76856;SDS011;69705;44.686;37.628;2023-07-20T12:08:57;6.75;;;2.50;;
76856;SDS011;69705;44.686;37.628;2023-07-20T12:11:31;5.75;;;2.10;;
76856;SDS011;69705;44.686;37.628;2023-07-20T12:13:59;7.53;;;2.23;;
76856;SDS011;69705;44.686;37.628;2023-07-20T12:16:27;5.95;;;2.45;;
76856;SDS011;69705;44.686;37.628;2023-07-20T12:21:31;15.25;;;2.60;;
76856;SDS011;69705;44.686;37.628;2023-07-20T12:24:02;7.03;;;2.20;;
76856;SDS011;69705;44.686;37.628;2023-07-20T12:26:29;6.37;;;2.30;;
76856;SDS011;69705;44.686;37.628;2023-07-20T12:28:57;5.07;;;2.15;;
76856;SDS011;69705;44.686;37.628;2023-07-20T12:31:24;6.28;;;2.22;;
76856;SDS011;69705;44.686;37.628;2023-07-20T12:33:52;8.43;;;2.25;;
76856;SDS011;69705;44.686;37.628;2023-07-20T12:36:21;8.90;;;2.58;;
76856;SDS011;69705;44.686;37.628;2023-07-20T12:38:49;7.20;;;2.33;;
76856;SDS011;69705;44.686;37.628;2023-07-20T12:41:16;5.88;;;2.20;;
76856;SDS011;69705;44.686;37.628;2023-07-20T12:43:44;6.45;;;2.42;;
76856;SDS011;69705;44.686;37.628;2023-07-20T12:46:12;5.55;;;2.20;;
76856;SDS011;69705;44.686;37.628;2023-07-20T12:48:40;6.00;;;2.60;;
76856;SDS011;69705;44.686;37.628;2023-07-20T12:51:09;6.43;;;2.30;;
76856;SDS011;69705;44.686;37.628;2023-07-20T12:53:36;6.53;;;2.30;;
76856;SDS011;69705;44.686;37.628;2023-07-20T12:56:03;5.70;;;2.10;;
76856;SDS011;69705;44.686;37.628;2023-07-20T12:58:31;6.63;;;2.22;;
76856;SDS011;69705;44.686;37.628;2023-07-20T13:00:57;7.13;;;2.33;;
76856;SDS011;69705;44.686;37.628;2023-07-20T13:03:24;6.37;;;2.43;;
76856;SDS011;69705;44.686;37.628;2023-07-20T13:05:51;5.72;;;2.35;;
76856;SDS011;69705;44.686;37.628;2023-07-20T13:08:18;10.38;;;2.65;;
76856;SDS011;69705;44.686;37.628;2023-07-20T13:10:46;8.63;;;2.60;;
76856;SDS011;69705;44.686;37.628;2023-07-20T13:13:12;7.63;;;2.10;;
76856;SDS011;69705;44.686;37.628;2023-07-20T13:15:43;5.07;;;2.20;;
76856;SDS011;69705;44.686;37.628;2023-07-20T13:18:12;5.50;;;2.20;;
76856;SDS011;69705;44.686;37.628;2023-07-20T13:20:39;7.28;;;2.38;;
76856;SDS011;69705;44.686;37.628;2023-07-20T13:23:06;5.95;;;2.20;;
76856;SDS011;69705;44.686;37.628;2023-07-20T13:25:33;7.70;;;2.40;;
76856;SDS011;69705;44.686;37.628;2023-07-20T13:28:00;5.80;;;2.20;;
76856;SDS011;69705;44.686;37.628;2023-07-20T13:30:27;6.05;;;2.33;;
76856;SDS011;69705;44.686;37.628;2023-07-20T13:32:54;7.07;;;2.28;;
76856;SDS011;69705;44.686;37.628;2023-07-20T13:35:21;7.88;;;2.63;;
76856;SDS011;69705;44.686;37.628;2023-07-20T13:37:48;6.88;;;2.30;;
76856;SDS011;69705;44.686;37.628;2023-07-20T13:40:15;7.63;;;2.40;;
76856;SDS011;69705;44.686;37.628;2023-07-20T13:42:44;7.10;;;2.33;;
76856;SDS011;69705;44.686;37.628;2023-07-20T13:45:11;6.28;;;2.40;;
76856;SDS011;69705;44.686;37.628;2023-07-20T13:47:38;7.88;;;2.30;;
76856;SDS011;69705;44.686;37.628;2023-07-20T13:50:05;6.20;;;2.40;;
76856;SDS011;69705;44.686;37.628;2023-07-20T13:52:33;9.53;;;2.60;;
76856;SDS011;69705;44.686;37.628;2023-07-20T13:55:00;10.93;;;2.63;;
76856;SDS011;69705;44.686;37.628;2023-07-20T13:57:28;6.32;;;2.60;;
76856;SDS011;69705;44.686;37.628;2023-07-20T13:59:55;6.82;;;2.50;;
76856;SDS011;69705;44.686;37.628;2023-07-20T14:02:22;6.00;;;2.60;;
76856;SDS011;69705;44.686;37.628;2023-07-20T14:04:49;7.43;;;2.57;;
76856;SDS011;69705;44.686;37.628;2023-07-20T14:07:16;11.27;;;2.65;;
76856;SDS011;69705;44.686;37.628;2023-07-20T14:09:43;5.40;;;2.40;;
76856;SDS011;69705;44.686;37.628;2023-07-20T14:12:09;7.85;;;2.60;;
76856;SDS011;69705;44.686;37.628;2023-07-20T14:14:40;18.30;;;2.90;;
76856;SDS011;69705;44.686;37.628;2023-07-20T14:17:07;6.87;;;2.70;;
76856;SDS011;69705;44.686;37.628;2023-07-20T14:19:36;7.40;;;2.60;;
76856;SDS011;69705;44.686;37.628;2023-07-20T14:22:04;9.95;;;2.53;;
76856;SDS011;69705;44.686;37.628;2023-07-20T14:24:31;5.55;;;2.40;;
76856;SDS011;69705;44.686;37.628;2023-07-20T14:26:58;9.20;;;2.53;;
76856;SDS011;69705;44.686;37.628;2023-07-20T14:29:26;9.27;;;2.80;;
76856;SDS011;69705;44.686;37.628;2023-07-20T14:31:57;7.07;;;2.50;;
76856;SDS011;69705;44.686;37.628;2023-07-20T14:34:25;7.78;;;2.58;;
76856;SDS011;69705;44.686;37.628;2023-07-20T14:36:52;7.43;;;2.67;;
76856;SDS011;69705;44.686;37.628;2023-07-20T14:39:19;6.70;;;2.50;;
76856;SDS011;69705;44.686;37.628;2023-07-20T14:41:46;7.43;;;2.70;;
76856;SDS011;69705;44.686;37.628;2023-07-20T14:44:13;7.43;;;2.60;;
76856;SDS011;69705;44.686;37.628;2023-07-20T14:46:40;9.30;;;2.78;;
76856;SDS011;69705;44.686;37.628;2023-07-20T14:49:07;8.85;;;2.50;;
76856;SDS011;69705;44.686;37.628;2023-07-20T14:51:34;7.32;;;2.70;;
76856;SDS011;69705;44.686;37.628;2023-07-20T14:54:02;10.47;;;2.80;;
76856;SDS011;69705;44.686;37.628;2023-07-20T14:56:29;7.15;;;2.30;;
76856;SDS011;69705;44.686;37.628;2023-07-20T14:58:56;9.15;;;2.50;;
76856;SDS011;69705;44.686;37.628;2023-07-20T15:01:24;8.80;;;2.60;;
76856;SDS011;69705;44.686;37.628;2023-07-20T15:03:52;7.05;;;2.10;;
76856;SDS011;69705;44.686;37.628;2023-07-20T15:06:19;8.40;;;2.37;;